createdAt,value
2023-01-20T00:00:34.924Z,25.63
2023-01-20T00:03:01.480Z,28.25
2023-01-20T00:05:28.024Z,26.67
2023-01-20T00:07:54.541Z,29.05
2023-01-20T00:10:21.140Z,29.13
2023-01-20T00:12:47.655Z,28.98
2023-01-20T00:15:14.769Z,28.73
2023-01-20T00:17:41.898Z,26.05
2023-01-20T00:20:09.407Z,28.70
2023-01-20T00:22:42.329Z,27.30
2023-01-20T00:25:10.626Z,26.60
2023-01-20T00:27:37.231Z,26.63
2023-01-20T00:30:04.650Z,26.90
2023-01-20T00:32:31.202Z,26.98
2023-01-20T00:34:57.755Z,26.65
2023-01-20T00:37:24.313Z,26.20
2023-01-20T00:39:50.835Z,26.65
2023-01-20T00:42:17.344Z,25.50
2023-01-20T00:44:43.897Z,25.77
2023-01-20T00:47:10.480Z,26.00
2023-01-20T00:49:37.102Z,23.77
2023-01-20T00:52:03.680Z,26.00
2023-01-20T00:54:30.185Z,29.73
2023-01-20T00:56:56.789Z,28.00
2023-01-20T00:59:23.406Z,26.05
2023-01-20T01:01:50.107Z,27.38
2023-01-20T01:04:16.690Z,26.58
2023-01-20T01:06:43.283Z,28.55
2023-01-20T01:09:10.157Z,28.02
2023-01-20T01:11:36.648Z,29.85
2023-01-20T01:14:03.250Z,28.63
2023-01-20T01:16:29.949Z,27.70
2023-01-20T01:18:56.498Z,26.70
2023-01-20T01:21:23.219Z,26.23
2023-01-20T01:23:51.777Z,30.02
2023-01-20T01:26:18.513Z,27.13
2023-01-20T01:28:48.474Z,30.30
2023-01-20T01:31:16.022Z,29.08
2023-01-20T01:33:43.164Z,27.80
2023-01-20T01:36:13.196Z,30.83
2023-01-20T01:38:39.770Z,30.83
2023-01-20T01:41:06.660Z,28.52
2023-01-20T01:43:35.933Z,27.48
2023-01-20T01:46:03.403Z,30.73
2023-01-20T01:48:45.951Z,30.35
2023-01-20T01:51:20.898Z,27.85
2023-01-20T01:54:08.474Z,29.02
2023-01-20T01:56:37.339Z,30.48
2023-01-20T01:59:04.905Z,29.10
2023-01-20T02:01:34.212Z,28.00
2023-01-20T02:04:10.827Z,30.90
2023-01-20T02:06:41.347Z,32.25
2023-01-20T02:09:07.923Z,35.17
2023-01-20T02:11:48.260Z,34.50
2023-01-20T02:14:19.849Z,33.60
2023-01-20T02:16:57.178Z,31.60
2023-01-20T02:20:01.084Z,33.53
2023-01-20T02:22:55.593Z,34.42
2023-01-20T02:25:52.812Z,32.08
2023-01-20T02:28:50.479Z,31.30
2023-01-20T02:31:28.927Z,31.10
2023-01-20T02:34:06.664Z,30.30
2023-01-20T02:36:39.938Z,34.47
2023-01-20T02:39:26.874Z,32.25
2023-01-20T02:42:01.009Z,34.67
2023-01-20T02:44:34.720Z,32.80
2023-01-20T02:47:13.596Z,31.77
2023-01-20T02:49:52.407Z,33.80
2023-01-20T02:52:23.713Z,34.28
2023-01-20T02:54:54.720Z,34.10
2023-01-20T02:57:29.983Z,34.33
2023-01-20T03:00:01.611Z,32.45
2023-01-20T03:02:29.410Z,34.63
2023-01-20T03:05:07.136Z,30.50
2023-01-20T03:07:37.158Z,30.58
2023-01-20T03:10:08.002Z,32.88
2023-01-20T03:12:50.101Z,32.47
2023-01-20T03:15:21.839Z,32.03
2023-01-20T03:17:48.451Z,32.22
2023-01-20T03:20:15.379Z,29.52
2023-01-20T03:22:42.047Z,28.88
2023-01-20T03:25:10.959Z,28.50
2023-01-20T03:27:37.627Z,32.85
2023-01-20T03:30:12.118Z,32.42
2023-01-20T03:32:39.215Z,30.15
2023-01-20T03:35:06.017Z,30.85
2023-01-20T03:37:32.632Z,29.75
2023-01-20T03:39:59.234Z,31.65
2023-01-20T03:42:41.177Z,32.15
2023-01-20T03:45:30.427Z,33.10
2023-01-20T03:48:01.567Z,30.58
2023-01-20T03:50:53.559Z,31.75
2023-01-20T03:53:45.314Z,34.10
2023-01-20T03:56:30.717Z,30.30
2023-01-20T04:01:39.258Z,30.25
2023-01-20T04:04:14.505Z,31.73
2023-01-20T04:06:43.688Z,32.05
2023-01-20T04:09:24.443Z,30.00
2023-01-20T04:11:51.462Z,32.58
2023-01-20T04:14:18.146Z,35.30
2023-01-20T04:16:56.380Z,30.13
2023-01-20T04:19:23.980Z,30.98
2023-01-20T04:22:00.012Z,29.80
2023-01-20T04:24:44.250Z,36.15
2023-01-20T04:27:10.876Z,27.35
2023-01-20T04:29:37.408Z,29.55
2023-01-20T04:32:04.540Z,32.08
2023-01-20T04:34:31.143Z,33.63
2023-01-20T04:36:57.706Z,29.40
2023-01-20T04:39:24.397Z,33.15
2023-01-20T04:41:50.955Z,32.53
2023-01-20T04:44:17.583Z,31.83
2023-01-20T04:46:45.355Z,30.40
2023-01-20T04:49:11.933Z,29.98
2023-01-20T04:51:38.602Z,30.02
2023-01-20T04:54:05.604Z,29.00
2023-01-20T04:56:32.234Z,29.65
2023-01-20T04:58:59.431Z,29.45
2023-01-20T05:01:26.022Z,28.63
2023-01-20T05:03:52.659Z,28.67
2023-01-20T05:06:19.246Z,29.15
2023-01-20T05:08:45.769Z,29.92
2023-01-20T05:11:12.341Z,30.25
2023-01-20T05:13:40.107Z,30.38
2023-01-20T05:16:08.328Z,29.33
2023-01-20T05:18:35.105Z,30.95
2023-01-20T05:21:03.672Z,30.60
2023-01-20T05:23:30.360Z,27.05
2023-01-20T05:25:56.947Z,29.10
2023-01-20T05:28:23.601Z,28.50
2023-01-20T05:30:50.794Z,31.17
2023-01-20T05:33:17.668Z,28.13
2023-01-20T05:35:44.245Z,31.88
2023-01-20T05:38:10.927Z,29.95
2023-01-20T05:40:37.512Z,29.67
2023-01-20T05:43:04.327Z,28.00
2023-01-20T05:45:32.397Z,28.08
2023-01-20T05:48:00.559Z,31.63
2023-01-20T05:50:28.827Z,29.52
2023-01-20T05:52:55.499Z,30.55
2023-01-20T05:55:22.123Z,30.25
2023-01-20T05:57:48.711Z,28.63
2023-01-20T06:00:15.523Z,30.40
2023-01-20T06:02:42.111Z,28.08
2023-01-20T06:05:08.955Z,29.83
2023-01-20T06:07:35.579Z,28.98
2023-01-20T06:10:02.499Z,29.30
2023-01-20T06:12:29.114Z,29.77
2023-01-20T06:14:55.643Z,28.80
2023-01-20T06:17:22.217Z,28.85
2023-01-20T06:19:48.796Z,29.58
2023-01-20T06:22:15.829Z,29.13
2023-01-20T06:24:42.429Z,28.30
2023-01-20T06:27:09.622Z,28.73
2023-01-20T06:29:36.226Z,27.63
2023-01-20T06:32:02.939Z,26.90
2023-01-20T06:34:29.541Z,26.63
2023-01-20T06:36:56.649Z,27.00
2023-01-20T06:39:23.217Z,27.13
2023-01-20T06:41:49.788Z,26.42
2023-01-20T06:44:17.173Z,26.98
2023-01-20T06:46:43.804Z,26.10
2023-01-20T06:49:10.369Z,25.42
2023-01-20T06:51:36.934Z,22.95
2023-01-20T06:54:03.588Z,23.42
2023-01-20T06:56:30.117Z,24.67
2023-01-20T06:58:56.717Z,24.80
2023-01-20T07:01:26.296Z,25.65
2023-01-20T07:03:53.470Z,25.48
2023-01-20T07:06:22.963Z,25.60
2023-01-20T07:08:49.511Z,25.70
2023-01-20T07:11:16.100Z,27.80
2023-01-20T07:13:43.059Z,25.95
2023-01-20T07:16:12.031Z,24.88
2023-01-20T07:18:39.749Z,25.40
2023-01-20T07:21:06.628Z,24.40
2023-01-20T07:23:33.761Z,25.83
2023-01-20T07:26:12.022Z,23.58
2023-01-20T07:28:38.887Z,26.27
2023-01-20T07:31:16.690Z,24.95
2023-01-20T07:33:43.390Z,24.48
2023-01-20T07:36:11.518Z,24.17
2023-01-20T07:38:38.811Z,24.27
2023-01-20T07:41:10.279Z,27.77
2023-01-20T07:43:36.908Z,26.85
2023-01-20T07:46:05.367Z,27.02
2023-01-20T07:48:33.106Z,26.88
2023-01-20T07:51:07.661Z,28.55
2023-01-20T07:53:52.594Z,27.67
2023-01-20T07:56:23.411Z,27.77
2023-01-20T07:58:50.585Z,26.25
2023-01-20T08:01:31.074Z,26.48
2023-01-20T08:04:00.386Z,27.17
2023-01-20T08:06:27.248Z,27.30
2023-01-20T08:08:57.055Z,27.35
2023-01-20T08:11:25.130Z,28.42
2023-01-20T08:13:51.677Z,29.75
2023-01-20T08:16:18.931Z,28.58
2023-01-20T08:18:46.121Z,27.13
2023-01-20T08:21:27.722Z,27.02
2023-01-20T08:23:58.938Z,30.13
2023-01-20T08:26:28.112Z,29.67
2023-01-20T08:28:55.717Z,30.55
2023-01-20T08:31:24.276Z,29.08
2023-01-20T08:33:55.912Z,27.30
2023-01-20T08:36:26.341Z,30.13
2023-01-20T08:38:54.128Z,28.05
2023-01-20T08:41:24.262Z,31.05
2023-01-20T08:43:51.033Z,27.85
2023-01-20T08:46:19.516Z,27.98
2023-01-20T08:48:47.158Z,27.50
2023-01-20T08:51:17.805Z,30.00
2023-01-20T08:53:44.801Z,27.50
2023-01-20T08:56:12.887Z,28.45
2023-01-20T08:58:40.629Z,28.02
2023-01-20T09:01:22.186Z,30.98
2023-01-20T09:04:03.483Z,29.25
2023-01-20T09:06:49.992Z,28.20
2023-01-20T09:09:18.047Z,27.75
2023-01-20T09:11:50.536Z,24.67
2023-01-20T09:14:21.462Z,25.05
2023-01-20T09:16:48.525Z,26.75
2023-01-20T09:19:15.247Z,27.58
2023-01-20T09:21:43.143Z,28.45
2023-01-20T09:24:10.073Z,27.00
2023-01-20T09:26:39.400Z,27.40
2023-01-20T09:29:10.988Z,27.88
2023-01-20T09:31:45.840Z,27.85
2023-01-20T09:34:18.954Z,27.48
2023-01-20T09:36:45.913Z,28.13
2023-01-20T09:39:32.940Z,27.67
2023-01-20T09:42:23.974Z,26.00
2023-01-20T09:45:22.616Z,27.42
2023-01-20T09:47:49.372Z,24.95
2023-01-20T09:51:07.282Z,27.08
2023-01-20T09:53:50.445Z,27.80
2023-01-20T09:56:19.874Z,28.15
2023-01-20T09:59:09.283Z,30.02
2023-01-20T10:01:53.844Z,29.40
2023-01-20T10:04:41.744Z,29.73
2023-01-20T10:07:31.982Z,27.48
2023-01-20T10:10:28.488Z,30.70
2023-01-20T10:13:05.569Z,27.63
2023-01-20T10:15:47.117Z,30.20
2023-01-20T10:18:29.992Z,29.77
2023-01-20T10:20:59.383Z,30.75
2023-01-20T10:23:56.107Z,28.98
2023-01-20T10:26:43.995Z,32.22
2023-01-20T10:29:20.019Z,30.58
2023-01-20T10:31:58.833Z,30.45
2023-01-20T10:34:34.359Z,28.33
2023-01-20T10:37:09.157Z,29.73
2023-01-20T10:39:47.781Z,28.27
2023-01-20T10:42:17.087Z,30.40
2023-01-20T10:44:44.075Z,30.17
2023-01-20T10:47:41.102Z,29.02
2023-01-20T10:50:13.891Z,28.83
2023-01-20T10:53:01.217Z,30.55
2023-01-20T10:55:49.075Z,30.27
2023-01-20T10:58:23.794Z,27.80
2023-01-20T11:00:51.462Z,30.40
2023-01-20T11:03:20.168Z,28.55
2023-01-20T11:05:51.665Z,26.95
2023-01-20T11:08:26.793Z,28.00
2023-01-20T11:11:09.643Z,26.05
2023-01-20T11:13:36.270Z,26.08
2023-01-20T11:16:11.295Z,26.58
2023-01-20T11:21:07.963Z,24.33
2023-01-20T11:23:43.131Z,26.70
2023-01-20T11:26:28.821Z,24.88
2023-01-20T11:29:10.680Z,25.27
2023-01-20T11:31:48.018Z,22.30
2023-01-20T11:34:32.244Z,23.98
2023-01-20T11:37:04.980Z,23.08
2023-01-20T11:39:49.799Z,21.35
2023-01-20T11:42:40.784Z,23.55
2023-01-20T11:45:27.206Z,24.08
2023-01-20T11:48:16.441Z,22.95
2023-01-20T11:51:00.771Z,22.83
2023-01-20T11:53:32.717Z,22.83
2023-01-20T11:56:04.606Z,22.13
2023-01-20T11:58:50.825Z,22.95
2023-01-20T12:01:26.013Z,22.88
2023-01-20T12:04:11.629Z,21.83
2023-01-20T12:07:00.469Z,20.92
2023-01-20T12:09:36.287Z,22.50
2023-01-20T12:12:14.701Z,21.48
2023-01-20T12:15:12.423Z,22.10
2023-01-20T12:17:56.745Z,22.38
2023-01-20T12:20:54.519Z,23.90
2023-01-20T12:23:55.204Z,23.45
2023-01-20T12:26:27.570Z,23.58
2023-01-20T12:29:07.140Z,21.60
2023-01-20T12:31:34.232Z,21.65
2023-01-20T12:34:05.709Z,23.77
2023-01-20T12:36:44.552Z,21.55
2023-01-20T12:39:17.024Z,22.30
2023-01-20T12:42:06.805Z,22.77
2023-01-20T12:44:58.982Z,21.38
2023-01-20T12:47:51.951Z,20.70
2023-01-20T12:50:55.898Z,20.20
2023-01-20T12:53:32.637Z,20.67
2023-01-20T12:56:20.905Z,20.67
2023-01-20T12:59:00.732Z,21.80
2023-01-20T13:01:59.861Z,21.52
2023-01-20T13:04:36.434Z,22.65
2023-01-20T13:07:24.567Z,21.13
2023-01-20T13:10:08.976Z,22.25
2023-01-20T13:12:38.447Z,21.95
2023-01-20T13:15:23.855Z,23.10
2023-01-20T13:18:24.770Z,23.75
2023-01-20T13:20:54.309Z,22.98
2023-01-20T13:23:30.181Z,22.08
2023-01-20T13:25:58.270Z,21.05
2023-01-20T13:28:28.549Z,22.45
2023-01-20T13:30:57.423Z,24.67
2023-01-20T13:33:40.003Z,24.50
2023-01-20T13:36:23.043Z,23.95
2023-01-20T13:39:10.640Z,23.40
2023-01-20T13:41:49.094Z,22.45
2023-01-20T13:44:35.668Z,23.30
2023-01-20T13:47:03.322Z,22.15
2023-01-20T13:49:50.317Z,22.75
2023-01-20T13:52:54.759Z,23.65
2023-01-20T13:55:50.860Z,21.48
2023-01-20T13:58:33.881Z,24.15
2023-01-20T14:01:01.905Z,22.98
2023-01-20T14:03:29.950Z,21.55
2023-01-20T14:06:01.896Z,22.10
2023-01-20T14:08:31.794Z,21.77
2023-01-20T14:11:18.252Z,20.75
2023-01-20T14:13:58.259Z,22.00
2023-01-20T14:16:51.884Z,21.52
2023-01-20T14:19:25.235Z,21.98
2023-01-20T14:21:55.386Z,20.95
2023-01-20T14:24:52.756Z,22.05
2023-01-20T14:27:28.255Z,22.80
2023-01-20T14:29:56.605Z,21.05
2023-01-20T14:32:33.769Z,20.52
2023-01-20T14:35:01.545Z,22.00
2023-01-20T14:37:34.467Z,22.80
2023-01-20T14:40:12.286Z,23.35
2023-01-20T14:42:39.744Z,21.33
2023-01-20T14:45:21.807Z,23.45
2023-01-20T14:47:48.902Z,23.98
2023-01-20T14:50:17.759Z,23.05
2023-01-20T14:52:48.689Z,24.75
2023-01-20T14:55:27.367Z,27.73
2023-01-20T14:57:54.044Z,26.67
2023-01-20T15:00:32.640Z,26.33
2023-01-20T15:03:19.326Z,24.65
2023-01-20T15:06:15.705Z,23.90
2023-01-20T15:09:04.458Z,25.45
2023-01-20T15:11:33.331Z,23.85
2023-01-20T15:14:08.150Z,24.38
2023-01-20T15:16:43.903Z,24.80
2023-01-20T15:19:13.312Z,24.95
2023-01-20T15:22:00.980Z,25.08
2023-01-20T15:24:32.801Z,25.25
2023-01-20T15:27:01.700Z,25.77
2023-01-20T15:29:36.392Z,24.13
2023-01-20T15:32:10.348Z,24.77
2023-01-20T15:34:37.110Z,24.27
2023-01-20T15:37:14.347Z,24.33
2023-01-20T15:39:41.087Z,24.60
2023-01-20T15:42:11.285Z,23.60
2023-01-20T15:44:37.867Z,24.00
2023-01-20T15:47:25.949Z,26.90
2023-01-20T15:49:52.631Z,26.10
2023-01-20T15:52:19.247Z,27.05
2023-01-20T15:54:45.759Z,26.80
2023-01-20T15:57:17.006Z,25.90
2023-01-20T15:59:47.561Z,26.38
2023-01-20T16:02:19.485Z,26.83
2023-01-20T16:04:46.259Z,27.35
2023-01-20T16:07:15.696Z,26.52
2023-01-20T16:09:42.704Z,27.88
2023-01-20T16:12:12.828Z,27.95
2023-01-20T16:14:40.264Z,28.70
2023-01-20T16:17:21.421Z,27.73
2023-01-20T16:19:49.097Z,27.95
2023-01-20T16:22:16.238Z,27.63
2023-01-20T16:24:43.834Z,26.50
2023-01-20T16:27:18.937Z,27.48
2023-01-20T16:32:15.231Z,27.60
2023-01-20T16:34:44.094Z,60.67
2023-01-20T16:37:13.903Z,76.07
2023-01-20T16:39:40.714Z,36.03
2023-01-20T16:42:12.771Z,25.83
2023-01-20T16:44:39.472Z,28.05
2023-01-20T16:47:06.504Z,28.83
2023-01-20T16:49:33.043Z,28.25
2023-01-20T16:51:59.647Z,25.70
2023-01-20T16:54:26.235Z,26.08
2023-01-20T16:56:52.810Z,25.13
2023-01-20T16:59:19.407Z,25.25
2023-01-20T17:01:47.986Z,27.00
2023-01-20T17:04:14.923Z,28.08
2023-01-20T17:06:41.484Z,28.67
2023-01-20T17:09:08.045Z,31.13
2023-01-20T17:11:37.311Z,29.60
2023-01-20T17:14:05.730Z,26.88
2023-01-20T17:16:32.569Z,27.55
2023-01-20T17:19:00.470Z,28.42
2023-01-20T17:21:29.538Z,31.73
2023-01-20T17:24:00.820Z,29.23
2023-01-20T17:26:28.395Z,28.10
2023-01-20T17:29:02.112Z,31.33
2023-01-20T17:31:29.063Z,31.08
2023-01-20T17:33:55.682Z,33.65
2023-01-20T17:36:22.706Z,33.47
2023-01-20T17:38:49.275Z,31.15
2023-01-20T17:41:16.051Z,31.83
2023-01-20T17:43:45.996Z,30.75
2023-01-20T17:46:18.284Z,30.33
2023-01-20T17:48:45.960Z,32.05
2023-01-20T17:51:15.269Z,33.58
2023-01-20T17:53:42.155Z,33.78
2023-01-20T17:56:12.719Z,33.35
2023-01-20T17:58:42.066Z,31.77
2023-01-20T18:01:26.487Z,30.85
2023-01-20T18:03:54.938Z,29.80
2023-01-20T18:06:23.175Z,32.25
2023-01-20T18:08:58.161Z,30.75
2023-01-20T18:11:26.901Z,29.35
2023-01-20T18:13:55.565Z,28.70
2023-01-20T18:16:24.749Z,27.48
2023-01-20T18:18:51.476Z,28.05
2023-01-20T18:21:23.729Z,29.60
2023-01-20T18:23:51.407Z,25.10
2023-01-20T18:26:21.163Z,26.50
2023-01-20T18:28:48.039Z,27.15
2023-01-20T18:31:17.677Z,26.23
2023-01-20T18:33:47.557Z,23.85
2023-01-20T18:36:23.519Z,24.65
2023-01-20T18:38:52.202Z,24.00
2023-01-20T18:41:18.965Z,24.95
2023-01-20T18:43:46.542Z,23.65
2023-01-20T18:46:13.634Z,22.23
2023-01-20T18:48:42.028Z,22.75
2023-01-20T18:51:10.439Z,21.67
2023-01-20T18:53:37.351Z,20.45
2023-01-20T18:56:06.562Z,23.20
2023-01-20T18:58:34.748Z,21.58
2023-01-20T19:01:22.179Z,23.55
2023-01-20T19:03:49.543Z,25.58
2023-01-20T19:06:21.691Z,23.08
2023-01-20T19:08:48.699Z,22.15
2023-01-20T19:11:24.003Z,23.23
2023-01-20T19:13:53.328Z,22.25
2023-01-20T19:16:22.766Z,22.30
2023-01-20T19:18:55.572Z,22.88
2023-01-20T19:21:23.160Z,23.52
2023-01-20T19:23:55.251Z,24.58
2023-01-20T19:26:23.922Z,23.30
2023-01-20T19:29:02.742Z,22.60
2023-01-20T19:31:38.418Z,23.00
2023-01-20T19:34:09.016Z,23.48
2023-01-20T19:36:36.534Z,24.00
2023-01-20T19:39:03.921Z,22.33
2023-01-20T19:41:34.276Z,23.00
2023-01-20T19:44:03.044Z,21.30
2023-01-20T19:46:31.808Z,23.83
2023-01-20T19:49:00.349Z,22.08
2023-01-20T19:51:27.306Z,23.63
2023-01-20T19:53:59.573Z,21.38
2023-01-20T19:56:28.534Z,24.55
2023-01-20T19:58:55.668Z,23.63
2023-01-20T20:01:31.259Z,25.00
2023-01-20T20:03:58.484Z,23.73
2023-01-20T20:06:32.478Z,24.88
2023-01-20T20:09:20.517Z,21.98
2023-01-20T20:11:48.836Z,22.08
2023-01-20T20:14:17.343Z,21.98
2023-01-20T20:16:43.993Z,20.35
2023-01-20T20:19:13.475Z,22.48
2023-01-20T20:21:40.041Z,20.92
2023-01-20T20:24:06.844Z,22.90
2023-01-20T20:26:36.180Z,24.60
2023-01-20T20:29:08.099Z,24.35
2023-01-20T20:31:37.297Z,23.70
2023-01-20T20:34:05.524Z,23.92
2023-01-20T20:36:33.439Z,23.80
2023-01-20T20:39:02.043Z,24.27
2023-01-20T20:41:31.405Z,24.92
2023-01-20T20:44:00.477Z,24.55
2023-01-20T20:46:28.093Z,27.10
2023-01-20T20:49:01.893Z,25.27
2023-01-20T20:51:32.066Z,25.00
2023-01-20T20:54:00.690Z,26.17
2023-01-20T20:56:31.277Z,29.90
2023-01-20T20:59:02.349Z,30.05
2023-01-20T21:01:32.694Z,24.75
2023-01-20T21:04:00.341Z,25.65
2023-01-20T21:06:27.452Z,23.08
2023-01-20T21:08:54.393Z,22.58
2023-01-20T21:11:20.966Z,23.20
2023-01-20T21:13:50.901Z,26.77
2023-01-20T21:16:21.751Z,22.90
2023-01-20T21:18:49.471Z,22.05
2023-01-20T21:21:19.359Z,20.65
2023-01-20T21:23:54.120Z,21.48
2023-01-20T21:26:21.532Z,21.23
2023-01-20T21:28:50.895Z,21.40
2023-01-20T21:31:24.482Z,20.45
2023-01-20T21:33:58.136Z,21.02
2023-01-20T21:36:26.037Z,20.42
2023-01-20T21:38:52.562Z,19.08
2023-01-20T21:41:19.224Z,18.60
2023-01-20T21:44:05.949Z,18.23
2023-01-20T21:46:38.266Z,18.13
2023-01-20T21:49:24.133Z,17.90
2023-01-20T21:52:09.501Z,20.40
2023-01-20T21:54:36.281Z,21.45
2023-01-20T21:57:02.995Z,17.45
2023-01-20T21:59:30.167Z,19.00
2023-01-20T22:01:56.792Z,18.92
2023-01-20T22:04:23.372Z,18.88
2023-01-20T22:06:49.947Z,21.05
2023-01-20T22:09:16.487Z,19.67
2023-01-20T22:11:43.007Z,21.90
2023-01-20T22:14:10.362Z,20.75
2023-01-20T22:16:37.033Z,19.38
2023-01-20T22:19:04.639Z,19.35
2023-01-20T22:21:32.805Z,18.60
2023-01-20T22:24:01.336Z,19.52
2023-01-20T22:26:27.885Z,20.73
2023-01-20T22:28:54.400Z,20.27
2023-01-20T22:31:23.343Z,23.95
2023-01-20T22:33:51.747Z,22.83
2023-01-20T22:36:19.311Z,23.98
2023-01-20T22:38:46.070Z,22.45
2023-01-20T22:41:12.719Z,23.38
2023-01-20T22:43:40.984Z,21.80
2023-01-20T22:46:07.580Z,21.80
2023-01-20T22:48:34.955Z,24.27
2023-01-20T22:51:06.864Z,23.02
2023-01-20T22:53:34.103Z,22.98
2023-01-20T22:56:04.924Z,22.17
2023-01-20T22:58:32.252Z,21.30
2023-01-20T23:00:59.250Z,21.92
2023-01-20T23:03:26.639Z,23.33
2023-01-20T23:05:58.488Z,24.33
2023-01-20T23:08:27.368Z,23.98
2023-01-20T23:10:55.744Z,24.00
2023-01-20T23:13:23.068Z,24.77
2023-01-20T23:15:51.231Z,23.23
2023-01-20T23:18:18.500Z,25.88
2023-01-20T23:20:49.032Z,26.17
2023-01-20T23:23:16.044Z,22.30
2023-01-20T23:25:42.841Z,22.75
2023-01-20T23:28:09.932Z,23.83
2023-01-20T23:30:36.743Z,24.35
2023-01-20T23:33:04.402Z,22.00
2023-01-20T23:35:31.039Z,23.65
2023-01-20T23:37:57.535Z,24.75
2023-01-20T23:40:24.496Z,25.13
2023-01-20T23:42:51.035Z,24.40
2023-01-20T23:45:17.815Z,25.55
2023-01-20T23:47:44.358Z,25.02
2023-01-20T23:50:11.366Z,23.40
2023-01-20T23:52:37.919Z,26.15
2023-01-20T23:55:04.844Z,22.30
2023-01-20T23:57:31.537Z,24.00
2023-01-20T23:59:58.082Z,24.90
